createdAt,value
2023-04-02T00:00:10.447Z,64.77
2023-04-02T00:02:56.605Z,64.70
2023-04-02T00:05:30.529Z,65.08
2023-04-02T00:08:03.283Z,65.02
2023-04-02T00:10:33.473Z,64.93
2023-04-02T00:13:19.823Z,65.02
2023-04-02T00:15:49.535Z,65.37
2023-04-02T00:18:21.593Z,64.78
2023-04-02T00:20:56.342Z,64.89
2023-04-02T00:23:23.055Z,65.17
2023-04-02T00:25:49.532Z,65.19
2023-04-02T00:28:19.625Z,64.79
2023-04-02T00:30:58.848Z,65.03
2023-04-02T00:33:31.552Z,64.86
2023-04-02T00:35:58.048Z,65.25
2023-04-02T00:38:31.745Z,65.03
2023-04-02T00:41:07.209Z,65.10
2023-04-02T00:43:38.370Z,64.93
2023-04-02T00:46:14.617Z,64.85
2023-04-02T00:49:02.879Z,65.25
2023-04-02T00:51:36.813Z,64.99
2023-04-02T00:54:06.822Z,65.18
2023-04-02T00:56:45.456Z,64.74
2023-04-02T00:59:33.537Z,64.74
2023-04-02T01:02:22.715Z,64.47
2023-04-02T01:05:00.722Z,64.91
2023-04-02T01:07:41.274Z,64.80
2023-04-02T01:10:33.067Z,64.64
2023-04-02T01:13:27.057Z,64.91
2023-04-02T01:16:09.830Z,65.10
2023-04-02T01:19:20.184Z,64.97
2023-04-02T01:22:08.064Z,65.10
2023-04-02T01:24:37.249Z,65.38
2023-04-02T01:27:20.653Z,65.41
2023-04-02T01:29:52.456Z,65.29
2023-04-02T01:32:21.985Z,65.11
2023-04-02T01:34:50.621Z,65.15
2023-04-02T01:37:44.855Z,65.22
2023-04-02T01:40:20.752Z,65.30
2023-04-02T01:42:58.382Z,65.25
2023-04-02T01:45:25.502Z,65.42
2023-04-02T01:47:52.695Z,65.44
2023-04-02T01:50:19.061Z,65.52
2023-04-02T01:52:49.638Z,65.81
2023-04-02T01:55:34.091Z,65.58
2023-04-02T01:58:03.750Z,65.41
2023-04-02T02:00:32.419Z,65.52
2023-04-02T02:03:00.973Z,65.78
2023-04-02T02:05:28.764Z,65.45
2023-04-02T02:07:58.247Z,65.65
2023-04-02T02:10:29.534Z,65.51
2023-04-02T02:13:00.165Z,65.68
2023-04-02T02:15:27.632Z,65.99
2023-04-02T02:17:59.310Z,65.63
2023-04-02T02:20:27.938Z,65.65
2023-04-02T02:22:54.705Z,65.77
2023-04-02T02:25:24.933Z,66.09
2023-04-02T02:28:00.388Z,65.89
2023-04-02T02:30:34.477Z,65.95
2023-04-02T02:33:07.613Z,65.73
2023-04-02T02:35:50.817Z,65.92
2023-04-02T02:38:30.843Z,66.19
2023-04-02T02:41:36.282Z,66.01
2023-04-02T02:44:14.268Z,65.78
2023-04-02T02:46:47.860Z,66.05
2023-04-02T02:49:22.451Z,66.02
2023-04-02T02:52:13.814Z,65.76
2023-04-02T02:54:51.754Z,66.06
2023-04-02T02:57:25.148Z,65.98
2023-04-02T02:59:54.705Z,66.32
2023-04-02T03:02:21.725Z,66.21
2023-04-02T03:04:52.990Z,66.05
2023-04-02T03:07:25.458Z,65.92
2023-04-02T03:10:12.318Z,65.76
2023-04-02T03:12:50.086Z,65.76
2023-04-02T03:15:31.507Z,65.86
2023-04-02T03:18:12.064Z,65.86
2023-04-02T03:20:46.750Z,65.93
2023-04-02T03:23:19.314Z,65.98
2023-04-02T03:25:57.300Z,65.99
2023-04-02T03:28:30.699Z,65.86
2023-04-02T03:31:08.424Z,66.13
2023-04-02T03:33:40.040Z,66.11
2023-04-02T03:36:28.518Z,65.91
2023-04-02T03:39:20.612Z,65.93
2023-04-02T03:42:00.611Z,66.08
2023-04-02T03:44:37.361Z,65.99
2023-04-02T03:47:14.287Z,66.23
2023-04-02T03:49:47.870Z,66.23
2023-04-02T03:52:22.362Z,66.02
2023-04-02T03:54:54.010Z,66.21
2023-04-02T03:57:38.404Z,66.34
2023-04-02T04:00:17.221Z,65.81
2023-04-02T04:02:57.389Z,65.86
2023-04-02T04:05:35.916Z,66.13
2023-04-02T04:08:08.259Z,66.14
2023-04-02T04:10:35.503Z,66.37
2023-04-02T04:13:31.460Z,65.86
2023-04-02T04:16:06.778Z,66.05
2023-04-02T04:18:49.044Z,65.86
2023-04-02T04:21:30.128Z,66.07
2023-04-02T04:24:16.623Z,66.14
2023-04-02T04:27:04.507Z,66.07
2023-04-02T04:30:05.700Z,65.95
2023-04-02T04:32:39.060Z,65.92
2023-04-02T04:35:23.729Z,65.66
2023-04-02T04:37:58.935Z,66.11
2023-04-02T04:40:30.503Z,66.14
2023-04-02T04:43:03.572Z,66.11
2023-04-02T04:45:47.202Z,66.02
2023-04-02T04:48:26.503Z,66.31
2023-04-02T04:51:00.671Z,66.36
2023-04-02T04:53:29.441Z,66.43
2023-04-02T04:56:16.005Z,66.29
2023-04-02T04:59:00.849Z,66.07
2023-04-02T05:02:01.613Z,66.08
2023-04-02T05:04:39.076Z,65.91
2023-04-02T05:07:14.096Z,66.17
2023-04-02T05:09:57.823Z,66.05
2023-04-02T05:12:39.687Z,66.17
2023-04-02T05:15:18.040Z,66.22
2023-04-02T05:17:56.656Z,66.03
2023-04-02T05:20:32.393Z,65.99
2023-04-02T05:23:11.329Z,66.25
2023-04-02T05:25:50.285Z,66.10
2023-04-02T05:28:29.974Z,66.13
2023-04-02T05:31:04.172Z,66.01
2023-04-02T05:33:37.526Z,66.24
2023-04-02T05:36:12.696Z,66.26
2023-04-02T05:38:46.707Z,66.13
2023-04-02T05:41:28.293Z,66.31
2023-04-02T05:44:03.694Z,66.38
2023-04-02T05:46:36.932Z,66.34
2023-04-02T05:49:09.649Z,66.42
2023-04-02T05:51:48.460Z,66.16
2023-04-02T05:54:26.091Z,66.09
2023-04-02T05:57:02.921Z,65.98
2023-04-02T05:59:37.739Z,66.05
2023-04-02T06:02:31.474Z,65.90
2023-04-02T06:05:11.288Z,66.29
2023-04-02T06:07:46.869Z,65.91
2023-04-02T06:10:24.794Z,65.81
2023-04-02T06:12:54.374Z,66.16
2023-04-02T06:15:23.780Z,65.91
2023-04-02T06:18:08.555Z,65.91
2023-04-02T06:20:35.975Z,66.13
2023-04-02T06:23:09.583Z,65.95
2023-04-02T06:25:42.398Z,66.01
2023-04-02T06:28:17.221Z,65.98
2023-04-02T06:30:54.589Z,66.11
2023-04-02T06:33:21.400Z,65.87
2023-04-02T06:35:51.879Z,66.02
2023-04-02T06:38:31.269Z,66.04
2023-04-02T06:41:01.317Z,65.71
2023-04-02T06:43:57.528Z,66.01
2023-04-02T06:46:43.480Z,65.66
2023-04-02T06:49:21.203Z,65.67
2023-04-02T06:51:53.787Z,65.45
2023-04-02T06:54:20.985Z,65.54
2023-04-02T06:56:54.366Z,65.95
2023-04-02T06:59:26.775Z,65.39
2023-04-02T07:01:57.788Z,65.46
2023-04-02T07:04:25.689Z,65.55
2023-04-02T07:06:53.761Z,65.36
2023-04-02T07:09:22.808Z,65.33
2023-04-02T07:11:53.796Z,65.35
2023-04-02T07:14:20.537Z,65.67
2023-04-02T07:16:47.076Z,65.16
2023-04-02T07:19:21.792Z,65.19
2023-04-02T07:21:52.118Z,65.47
2023-04-02T07:24:20.484Z,65.09
2023-04-02T07:26:48.274Z,65.12
2023-04-02T07:29:16.785Z,65.00
2023-04-02T07:31:43.608Z,65.05
2023-04-02T07:34:10.244Z,65.18
2023-04-02T07:36:36.819Z,65.03
2023-04-02T07:39:04.271Z,64.79
2023-04-02T07:41:30.917Z,64.77
2023-04-02T07:43:57.535Z,64.74
2023-04-02T07:46:24.521Z,64.49
2023-04-02T07:48:51.145Z,64.59
2023-04-02T07:51:26.018Z,64.41
2023-04-02T07:53:55.927Z,64.44
2023-04-02T07:56:24.557Z,64.20
2023-04-02T07:58:51.409Z,64.07
2023-04-02T08:01:26.267Z,64.35
2023-04-02T08:03:54.824Z,64.35
2023-04-02T08:06:22.558Z,64.14
2023-04-02T08:08:49.267Z,64.33
2023-04-02T08:11:16.367Z,64.06
2023-04-02T08:13:43.139Z,64.08
2023-04-02T08:16:10.551Z,63.82
2023-04-02T08:18:37.500Z,63.88
2023-04-02T08:21:09.797Z,64.08
2023-04-02T08:23:37.955Z,64.01
2023-04-02T08:26:05.816Z,63.91
2023-04-02T08:28:32.297Z,64.07
2023-04-02T08:30:58.814Z,64.00
2023-04-02T08:33:26.025Z,63.64
2023-04-02T08:35:52.459Z,63.62
2023-04-02T08:38:21.832Z,63.70
2023-04-02T08:40:54.429Z,63.68
2023-04-02T08:43:40.798Z,63.82
2023-04-02T08:46:17.593Z,63.39
2023-04-02T08:48:50.809Z,63.37
2023-04-02T08:51:26.607Z,63.16
2023-04-02T08:54:02.276Z,62.99
2023-04-02T08:56:49.312Z,63.34
2023-04-02T08:59:30.351Z,63.39
2023-04-02T09:02:05.695Z,63.68
2023-04-02T09:04:33.843Z,63.43
2023-04-02T09:07:00.901Z,63.72
2023-04-02T09:09:27.744Z,63.56
2023-04-02T09:12:02.816Z,63.52
2023-04-02T09:14:46.021Z,63.64
2023-04-02T09:17:23.751Z,63.55
2023-04-02T09:20:01.532Z,63.61
2023-04-02T09:22:31.616Z,63.80
2023-04-02T09:25:00.905Z,63.61
2023-04-02T09:27:33.995Z,63.60
2023-04-02T09:30:15.029Z,63.06
2023-04-02T09:32:51.148Z,63.30
2023-04-02T09:35:26.637Z,63.39
2023-04-02T09:38:09.915Z,63.20
2023-04-02T09:41:28.606Z,63.33
2023-04-02T09:44:13.162Z,62.77
2023-04-02T09:46:53.214Z,63.22
2023-04-02T09:49:23.563Z,63.42
2023-04-02T09:52:19.094Z,62.71
2023-04-02T09:54:47.608Z,62.68
2023-04-02T09:57:25.079Z,62.51
2023-04-02T10:00:31.919Z,62.57
2023-04-02T10:03:07.223Z,62.32
2023-04-02T10:08:15.869Z,62.68
2023-04-02T10:10:46.720Z,62.68
2023-04-02T10:13:26.184Z,62.56
2023-04-02T10:16:05.689Z,62.45
2023-04-02T10:19:22.665Z,61.68
2023-04-02T10:21:50.118Z,62.18
2023-04-02T10:24:17.699Z,62.48
2023-04-02T10:27:02.428Z,62.06
2023-04-02T10:29:42.828Z,61.41
2023-04-02T10:33:03.200Z,61.46
2023-04-02T10:36:01.642Z,61.53
2023-04-02T10:38:34.138Z,61.85
2023-04-02T10:41:12.790Z,62.06
2023-04-02T10:44:12.691Z,61.67
2023-04-02T10:47:14.832Z,61.42
2023-04-02T10:50:15.663Z,61.93
2023-04-02T10:52:52.521Z,61.61
2023-04-02T10:55:25.061Z,61.99
2023-04-02T10:57:54.051Z,61.93
2023-04-02T11:00:35.051Z,61.64
2023-04-02T11:03:27.113Z,61.66
2023-04-02T11:05:57.617Z,61.85
2023-04-02T11:08:29.515Z,61.65
2023-04-02T11:11:11.553Z,61.75
2023-04-02T11:13:55.362Z,61.61
2023-04-02T11:16:22.739Z,61.85
2023-04-02T11:19:17.225Z,61.61
2023-04-02T11:22:06.067Z,61.84
2023-04-02T11:24:44.087Z,61.81
2023-04-02T11:27:27.549Z,60.77
2023-04-02T11:30:07.650Z,61.32
2023-04-02T11:32:36.497Z,61.48
2023-04-02T11:35:20.708Z,61.31
2023-04-02T11:37:47.350Z,60.56
2023-04-02T11:40:13.980Z,61.24
2023-04-02T11:42:46.083Z,60.96
2023-04-02T11:45:26.003Z,60.52
2023-04-02T11:48:01.586Z,60.74
2023-04-02T11:50:34.739Z,60.83
2023-04-02T11:53:11.407Z,60.71
2023-04-02T11:55:39.692Z,61.00
2023-04-02T11:58:30.305Z,60.21
2023-04-02T12:01:07.852Z,60.08
2023-04-02T12:04:01.050Z,60.35
2023-04-02T12:06:46.706Z,60.61
2023-04-02T12:09:22.414Z,60.84
2023-04-02T12:11:52.573Z,60.68
2023-04-02T12:14:45.823Z,60.63
2023-04-02T12:17:21.417Z,60.24
2023-04-02T12:19:55.629Z,60.41
2023-04-02T12:22:28.871Z,60.19
2023-04-02T12:25:00.990Z,60.20
2023-04-02T12:27:29.487Z,60.32
2023-04-02T12:30:12.463Z,59.82
2023-04-02T12:32:38.925Z,60.20
2023-04-02T12:35:37.021Z,59.24
2023-04-02T12:38:03.445Z,59.64
2023-04-02T12:40:29.905Z,59.77
2023-04-02T12:42:56.308Z,60.18
2023-04-02T12:45:29.693Z,59.67
2023-04-02T12:47:57.928Z,59.97
2023-04-02T12:50:24.792Z,59.79
2023-04-02T12:52:54.911Z,59.91
2023-04-02T12:55:24.596Z,59.77
2023-04-02T12:57:59.037Z,59.61
2023-04-02T13:00:25.496Z,59.47
2023-04-02T13:03:00.971Z,59.24
2023-04-02T13:05:50.095Z,59.53
2023-04-02T13:08:19.715Z,59.45
2023-04-02T13:10:53.558Z,59.13
2023-04-02T13:13:28.246Z,59.91
2023-04-02T13:16:09.730Z,58.79
2023-04-02T13:18:38.161Z,59.56
2023-04-02T13:21:21.201Z,59.45
2023-04-02T13:23:48.227Z,59.09
2023-04-02T13:26:31.728Z,58.53
2023-04-02T13:29:11.201Z,58.89
2023-04-02T13:31:37.831Z,59.35
2023-04-02T13:34:04.249Z,59.27
2023-04-02T13:36:30.726Z,59.09
2023-04-02T13:38:57.453Z,59.29
2023-04-02T13:41:29.481Z,58.97
2023-04-02T13:44:00.001Z,59.47
2023-04-02T13:46:29.757Z,59.32
2023-04-02T13:48:57.687Z,59.21
2023-04-02T13:51:37.174Z,59.14
2023-04-02T13:54:08.514Z,59.29
2023-04-02T13:56:34.944Z,59.43
2023-04-02T13:59:01.403Z,59.20
2023-04-02T14:01:28.307Z,59.17
2023-04-02T14:03:56.747Z,59.11
2023-04-02T14:06:52.283Z,59.08
2023-04-02T14:09:29.824Z,59.04
2023-04-02T14:12:13.243Z,59.17
2023-04-02T14:14:50.597Z,59.20
2023-04-02T14:17:47.338Z,59.21
2023-04-02T14:20:25.953Z,59.13
2023-04-02T14:23:06.810Z,59.23
2023-04-02T14:26:01.058Z,58.77
2023-04-02T14:28:49.299Z,59.03
2023-04-02T14:31:31.523Z,58.96
2023-04-02T14:34:19.801Z,59.35
2023-04-02T14:37:04.562Z,59.08
2023-04-02T14:39:45.789Z,59.66
2023-04-02T14:42:16.520Z,59.08
2023-04-02T14:44:50.236Z,58.78
2023-04-02T14:47:25.725Z,58.64
2023-04-02T14:49:57.080Z,58.95
2023-04-02T14:52:26.709Z,58.90
2023-04-02T14:55:03.430Z,58.84
2023-04-02T14:57:33.296Z,59.05
2023-04-02T15:00:05.813Z,58.98
2023-04-02T15:02:44.742Z,58.98
2023-04-02T15:05:33.112Z,58.78
2023-04-02T15:08:19.827Z,58.73
2023-04-02T15:11:10.664Z,59.02
2023-04-02T15:13:42.198Z,58.87
2023-04-02T15:16:19.584Z,59.53
2023-04-02T15:18:51.053Z,58.88
2023-04-02T15:21:23.072Z,58.83
2023-04-02T15:24:04.452Z,58.80
2023-04-02T15:26:51.917Z,58.63
2023-04-02T15:29:49.245Z,59.07
2023-04-02T15:32:35.970Z,59.42
2023-04-02T15:35:24.911Z,59.24
2023-04-02T15:38:22.966Z,59.13
2023-04-02T15:41:01.756Z,59.17
2023-04-02T15:43:31.780Z,59.47
2023-04-02T15:46:36.348Z,59.40
2023-04-02T15:49:08.957Z,59.17
2023-04-02T15:51:44.908Z,59.27
2023-04-02T15:54:30.637Z,59.31
2023-04-02T15:57:16.446Z,59.74
2023-04-02T16:00:02.759Z,59.37
2023-04-02T16:02:58.316Z,59.97
2023-04-02T16:05:52.871Z,59.42
2023-04-02T16:08:33.406Z,59.73
2023-04-02T16:10:59.927Z,59.55
2023-04-02T16:13:29.427Z,59.44
2023-04-02T16:16:08.183Z,59.68
2023-04-02T16:18:34.573Z,59.81
2023-04-02T16:21:02.882Z,59.80
2023-04-02T16:23:38.302Z,59.77
2023-04-02T16:26:29.864Z,60.02
2023-04-02T16:29:54.628Z,59.91
2023-04-02T16:32:41.045Z,60.16
2023-04-02T16:35:42.734Z,59.84
2023-04-02T16:38:43.731Z,60.31
2023-04-02T16:41:33.572Z,60.25
2023-04-02T16:44:07.951Z,60.02
2023-04-02T16:46:40.304Z,59.89
2023-04-02T16:49:09.842Z,59.88
2023-04-02T16:51:52.193Z,60.05
2023-04-02T16:54:45.924Z,60.31
2023-04-02T16:57:29.776Z,60.14
2023-04-02T17:00:12.397Z,60.22
2023-04-02T17:02:47.853Z,60.24
2023-04-02T17:05:33.212Z,60.04
2023-04-02T17:08:21.292Z,60.21
2023-04-02T17:10:55.076Z,60.38
2023-04-02T17:13:52.795Z,60.30
2023-04-02T17:16:36.667Z,60.30
2023-04-02T17:19:09.593Z,60.16
2023-04-02T17:21:38.079Z,60.24
2023-04-02T17:24:17.195Z,59.96
2023-04-02T17:26:47.498Z,60.07
2023-04-02T17:29:27.078Z,59.99
2023-04-02T17:32:01.365Z,59.74
2023-04-02T17:34:28.246Z,59.94
2023-04-02T17:37:20.069Z,60.08
2023-04-02T17:40:08.422Z,60.06
2023-04-02T17:42:54.820Z,59.95
2023-04-02T17:45:39.124Z,60.20
2023-04-02T17:48:08.746Z,59.96
2023-04-02T17:50:51.942Z,59.91
2023-04-02T17:53:33.070Z,59.82
2023-04-02T17:56:19.908Z,60.06
2023-04-02T17:59:23.725Z,60.23
2023-04-02T18:02:00.890Z,59.89
2023-04-02T18:04:48.812Z,59.77
2023-04-02T18:07:36.868Z,59.72
2023-04-02T18:10:27.863Z,59.94
2023-04-02T18:13:07.612Z,60.02
2023-04-02T18:15:50.348Z,59.96
2023-04-02T18:18:41.076Z,60.18
2023-04-02T18:21:32.769Z,60.11
2023-04-02T18:24:21.411Z,60.14
2023-04-02T18:27:00.975Z,59.80
2023-04-02T18:29:39.548Z,60.05
2023-04-02T18:32:27.350Z,60.27
2023-04-02T18:35:07.873Z,60.09
2023-04-02T18:38:12.673Z,60.20
2023-04-02T18:40:57.661Z,60.52
2023-04-02T18:43:46.938Z,60.32
2023-04-02T18:46:32.421Z,60.13
2023-04-02T18:49:05.424Z,60.12
2023-04-02T18:51:36.672Z,60.15
2023-04-02T18:54:17.830Z,60.37
2023-04-02T18:56:44.511Z,60.11
2023-04-02T18:59:37.999Z,60.18
2023-04-02T19:02:44.270Z,60.19
2023-04-02T19:05:36.853Z,60.21
2023-04-02T19:08:47.827Z,60.28
2023-04-02T19:11:20.279Z,60.32
2023-04-02T19:13:48.872Z,60.40
2023-04-02T19:16:58.812Z,60.36
2023-04-02T19:19:27.455Z,60.14
2023-04-02T19:22:09.048Z,60.54
2023-04-02T19:25:13.818Z,60.24
2023-04-02T19:27:59.943Z,60.16
2023-04-02T19:30:53.837Z,60.19
2023-04-02T19:33:32.501Z,60.19
2023-04-02T19:36:31.877Z,60.37
2023-04-02T19:39:16.735Z,60.61
2023-04-02T19:41:49.548Z,60.22
2023-04-02T19:44:17.015Z,60.12
2023-04-02T19:46:44.637Z,60.42
2023-04-02T19:49:14.567Z,60.45
2023-04-02T19:51:41.111Z,60.36
2023-04-02T19:54:07.576Z,60.25
2023-04-02T19:56:34.298Z,60.50
2023-04-02T19:59:07.831Z,60.38
2023-04-02T20:01:43.406Z,60.37
2023-04-02T20:04:09.910Z,60.61
2023-04-02T20:06:37.491Z,60.50
2023-04-02T20:09:04.170Z,60.68
2023-04-02T20:11:30.938Z,60.43
2023-04-02T20:13:57.377Z,60.38
2023-04-02T20:16:23.930Z,60.60
2023-04-02T20:18:51.315Z,60.40
2023-04-02T20:21:17.771Z,60.67
2023-04-02T20:23:44.450Z,60.43
2023-04-02T20:26:11.655Z,60.25
2023-04-02T20:28:38.167Z,60.69
2023-04-02T20:31:06.058Z,60.67
2023-04-02T20:33:32.765Z,60.54
2023-04-02T20:36:06.218Z,60.62
2023-04-02T20:38:33.300Z,60.52
2023-04-02T20:41:00.744Z,60.87
2023-04-02T20:43:28.390Z,60.70
2023-04-02T20:46:08.337Z,60.90
2023-04-02T20:48:37.629Z,60.79
2023-04-02T20:51:06.964Z,60.77
2023-04-02T20:53:35.281Z,60.78
2023-04-02T20:56:13.655Z,61.10
2023-04-02T20:58:40.869Z,60.79
2023-04-02T21:01:37.533Z,60.93
2023-04-02T21:04:04.378Z,61.23
2023-04-02T21:06:34.109Z,61.32
2023-04-02T21:09:03.212Z,61.17
2023-04-02T21:11:29.673Z,61.24
2023-04-02T21:13:56.198Z,61.31
2023-04-02T21:16:31.969Z,61.20
2023-04-02T21:19:02.590Z,61.20
2023-04-02T21:21:29.416Z,61.29
2023-04-02T21:23:59.334Z,61.26
2023-04-02T21:26:26.942Z,60.95
2023-04-02T21:28:53.685Z,61.05
2023-04-02T21:31:22.957Z,61.19
2023-04-02T21:33:52.449Z,61.37
2023-04-02T21:36:24.626Z,61.10
2023-04-02T21:39:02.596Z,61.00
2023-04-02T21:41:32.179Z,61.12
2023-04-02T21:44:00.886Z,61.37
2023-04-02T21:46:29.398Z,61.20
2023-04-02T21:48:57.992Z,61.13
2023-04-02T21:51:26.681Z,61.45
2023-04-02T21:53:54.182Z,61.49
2023-04-02T21:56:28.601Z,61.43
2023-04-02T21:58:56.873Z,61.46
2023-04-02T22:01:27.967Z,61.75
2023-04-02T22:04:00.553Z,61.45
2023-04-02T22:06:29.646Z,61.71
2023-04-02T22:08:59.026Z,61.66
2023-04-02T22:11:28.254Z,61.75
2023-04-02T22:13:55.036Z,61.76
2023-04-02T22:16:24.544Z,61.56
2023-04-02T22:18:53.660Z,61.67
2023-04-02T22:21:20.443Z,61.52
2023-04-02T22:23:47.047Z,61.81
2023-04-02T22:26:14.886Z,61.80
2023-04-02T22:28:41.830Z,61.64
2023-04-02T22:31:20.161Z,61.76
2023-04-02T22:33:47.206Z,61.87
2023-04-02T22:36:17.153Z,61.62
2023-04-02T22:38:44.027Z,61.85
2023-04-02T22:41:19.468Z,61.62
2023-04-02T22:43:46.178Z,61.86
2023-04-02T22:46:14.416Z,61.53
2023-04-02T22:48:41.060Z,61.63
2023-04-02T22:51:09.009Z,61.71
2023-04-02T22:53:36.604Z,61.80
2023-04-02T22:56:06.614Z,61.62
2023-04-02T22:58:33.651Z,61.71
2023-04-02T23:01:28.387Z,61.57
2023-04-02T23:03:55.892Z,61.96
2023-04-02T23:06:23.593Z,61.89
2023-04-02T23:08:50.405Z,62.22
2023-04-02T23:11:21.853Z,62.00
2023-04-02T23:13:50.355Z,62.46
2023-04-02T23:16:18.159Z,62.38
2023-04-02T23:18:47.923Z,62.37
2023-04-02T23:21:15.036Z,62.12
2023-04-02T23:23:41.731Z,62.08
2023-04-02T23:26:17.266Z,62.01
2023-04-02T23:28:44.331Z,62.42
2023-04-02T23:31:14.143Z,62.38
2023-04-02T23:33:40.839Z,62.14
2023-04-02T23:36:28.006Z,62.13
2023-04-02T23:38:56.643Z,62.25
2023-04-02T23:41:26.643Z,62.24
2023-04-02T23:43:54.150Z,62.25
2023-04-02T23:46:20.923Z,62.24
2023-04-02T23:48:50.501Z,62.41
2023-04-02T23:51:17.452Z,62.35
2023-04-02T23:53:43.949Z,62.52
2023-04-02T23:56:10.971Z,62.29
2023-04-02T23:58:37.810Z,62.51
